sensor_id;sensor_type;location;lat;lon;timestamp;P1;durP1;ratioP1;P2;durP2;ratioP2
13343;SDS011;6741;48.964;9.406;2023-05-02T00:00:20;11.03;;;8.57;;
13343;SDS011;6741;48.964;9.406;2023-05-02T00:02:47;9.80;;;8.80;;
13343;SDS011;6741;48.964;9.406;2023-05-02T00:05:14;9.83;;;8.80;;
13343;SDS011;6741;48.964;9.406;2023-05-02T00:07:41;10.80;;;8.17;;
13343;SDS011;6741;48.964;9.406;2023-05-02T00:10:09;10.17;;;7.77;;
13343;SDS011;6741;48.964;9.406;2023-05-02T00:12:36;9.50;;;8.57;;
13343;SDS011;6741;48.964;9.406;2023-05-02T00:15:04;9.00;;;8.10;;
13343;SDS011;6741;48.964;9.406;2023-05-02T00:17:32;9.30;;;8.27;;
13343;SDS011;6741;48.964;9.406;2023-05-02T00:19:59;8.87;;;7.97;;
13343;SDS011;6741;48.964;9.406;2023-05-02T00:22:28;9.27;;;8.37;;
13343;SDS011;6741;48.964;9.406;2023-05-02T00:24:55;8.73;;;7.73;;
13343;SDS011;6741;48.964;9.406;2023-05-02T00:27:22;9.33;;;8.43;;
13343;SDS011;6741;48.964;9.406;2023-05-02T00:29:49;11.63;;;8.67;;
13343;SDS011;6741;48.964;9.406;2023-05-02T00:32:16;10.17;;;8.40;;
13343;SDS011;6741;48.964;9.406;2023-05-02T00:34:45;9.47;;;8.47;;
13343;SDS011;6741;48.964;9.406;2023-05-02T00:37:12;9.47;;;8.37;;
13343;SDS011;6741;48.964;9.406;2023-05-02T00:39:38;9.40;;;8.47;;
13343;SDS011;6741;48.964;9.406;2023-05-02T00:42:05;9.43;;;8.43;;
13343;SDS011;6741;48.964;9.406;2023-05-02T00:44:32;9.27;;;8.37;;
13343;SDS011;6741;48.964;9.406;2023-05-02T00:46:59;9.87;;;8.90;;
13343;SDS011;6741;48.964;9.406;2023-05-02T00:49:27;9.13;;;8.23;;
13343;SDS011;6741;48.964;9.406;2023-05-02T00:51:56;8.37;;;7.57;;
13343;SDS011;6741;48.964;9.406;2023-05-02T00:54:23;9.03;;;8.13;;
13343;SDS011;6741;48.964;9.406;2023-05-02T00:56:50;9.80;;;8.27;;
13343;SDS011;6741;48.964;9.406;2023-05-02T00:59:17;8.37;;;7.57;;
13343;SDS011;6741;48.964;9.406;2023-05-02T01:01:48;10.60;;;8.17;;
13343;SDS011;6741;48.964;9.406;2023-05-02T01:04:22;9.40;;;8.40;;
13343;SDS011;6741;48.964;9.406;2023-05-02T01:07:01;9.17;;;8.23;;
13343;SDS011;6741;48.964;9.406;2023-05-02T01:09:47;8.17;;;7.30;;
13343;SDS011;6741;48.964;9.406;2023-05-02T01:12:24;9.23;;;8.33;;
13343;SDS011;6741;48.964;9.406;2023-05-02T01:14:54;9.13;;;8.23;;
13343;SDS011;6741;48.964;9.406;2023-05-02T01:17:23;9.67;;;8.20;;
13343;SDS011;6741;48.964;9.406;2023-05-02T01:19:53;8.53;;;7.73;;
13343;SDS011;6741;48.964;9.406;2023-05-02T01:22:24;8.50;;;7.70;;
13343;SDS011;6741;48.964;9.406;2023-05-02T01:24:58;9.30;;;7.73;;
13343;SDS011;6741;48.964;9.406;2023-05-02T01:27:35;10.93;;;8.23;;
13343;SDS011;6741;48.964;9.406;2023-05-02T01:30:10;8.37;;;7.57;;
13343;SDS011;6741;48.964;9.406;2023-05-02T01:32:38;9.87;;;8.77;;
13343;SDS011;6741;48.964;9.406;2023-05-02T01:35:07;8.50;;;7.60;;
13343;SDS011;6741;48.964;9.406;2023-05-02T01:37:35;10.47;;;8.40;;
13343;SDS011;6741;48.964;9.406;2023-05-02T01:40:05;8.60;;;7.80;;
13343;SDS011;6741;48.964;9.406;2023-05-02T01:42:34;9.73;;;8.70;;
13343;SDS011;6741;48.964;9.406;2023-05-02T01:45:02;9.77;;;8.77;;
13343;SDS011;6741;48.964;9.406;2023-05-02T01:47:34;9.67;;;8.73;;
13343;SDS011;6741;48.964;9.406;2023-05-02T01:50:03;11.93;;;9.17;;
13343;SDS011;6741;48.964;9.406;2023-05-02T01:52:33;10.63;;;9.30;;
13343;SDS011;6741;48.964;9.406;2023-05-02T01:55:01;9.60;;;8.60;;
13343;SDS011;6741;48.964;9.406;2023-05-02T01:57:29;10.33;;;8.83;;
13343;SDS011;6741;48.964;9.406;2023-05-02T01:59:57;9.70;;;8.60;;
13343;SDS011;6741;48.964;9.406;2023-05-02T02:02:25;9.83;;;8.37;;
13343;SDS011;6741;48.964;9.406;2023-05-02T02:04:55;10.13;;;8.67;;
13343;SDS011;6741;48.964;9.406;2023-05-02T02:07:24;10.30;;;9.10;;
13343;SDS011;6741;48.964;9.406;2023-05-02T02:09:51;12.03;;;9.20;;
13343;SDS011;6741;48.964;9.406;2023-05-02T02:12:21;11.47;;;9.07;;
13343;SDS011;6741;48.964;9.406;2023-05-02T02:14:55;10.50;;;9.43;;
13343;SDS011;6741;48.964;9.406;2023-05-02T02:17:26;11.23;;;9.07;;
13343;SDS011;6741;48.964;9.406;2023-05-02T02:20:04;9.57;;;8.57;;
13343;SDS011;6741;48.964;9.406;2023-05-02T02:22:34;10.17;;;9.03;;
13343;SDS011;6741;48.964;9.406;2023-05-02T02:25:04;11.07;;;9.30;;
13343;SDS011;6741;48.964;9.406;2023-05-02T02:27:33;12.60;;;9.70;;
13343;SDS011;6741;48.964;9.406;2023-05-02T02:30:01;9.57;;;8.57;;
13343;SDS011;6741;48.964;9.406;2023-05-02T02:32:28;10.10;;;9.03;;
13343;SDS011;6741;48.964;9.406;2023-05-02T02:34:55;10.20;;;9.07;;
13343;SDS011;6741;48.964;9.406;2023-05-02T02:37:25;9.00;;;8.10;;
13343;SDS011;6741;48.964;9.406;2023-05-02T02:39:57;9.07;;;8.17;;
13343;SDS011;6741;48.964;9.406;2023-05-02T02:42:31;10.60;;;9.03;;
13343;SDS011;6741;48.964;9.406;2023-05-02T02:45:08;9.37;;;8.17;;
13343;SDS011;6741;48.964;9.406;2023-05-02T02:47:46;10.83;;;9.70;;
13343;SDS011;6741;48.964;9.406;2023-05-02T02:50:23;10.17;;;9.07;;
13343;SDS011;6741;48.964;9.406;2023-05-02T02:52:59;11.13;;;8.93;;
13343;SDS011;6741;48.964;9.406;2023-05-02T02:55:30;10.30;;;9.20;;
13343;SDS011;6741;48.964;9.406;2023-05-02T02:58:06;11.80;;;10.27;;
13343;SDS011;6741;48.964;9.406;2023-05-02T03:00:41;11.60;;;9.93;;
13343;SDS011;6741;48.964;9.406;2023-05-02T03:03:10;12.70;;;10.20;;
13343;SDS011;6741;48.964;9.406;2023-05-02T03:05:39;12.07;;;10.50;;
13343;SDS011;6741;48.964;9.406;2023-05-02T03:08:08;11.93;;;10.73;;
13343;SDS011;6741;48.964;9.406;2023-05-02T03:10:35;12.13;;;9.37;;
13343;SDS011;6741;48.964;9.406;2023-05-02T03:13:02;9.97;;;8.73;;
13343;SDS011;6741;48.964;9.406;2023-05-02T03:18:51;11.43;;;9.23;;
13343;SDS011;6741;48.964;9.406;2023-05-02T03:21:18;14.17;;;11.70;;
13343;SDS011;6741;48.964;9.406;2023-05-02T03:23:46;13.77;;;11.57;;
13343;SDS011;6741;48.964;9.406;2023-05-02T03:26:13;13.17;;;11.77;;
13343;SDS011;6741;48.964;9.406;2023-05-02T03:28:41;13.43;;;12.13;;
13343;SDS011;6741;48.964;9.406;2023-05-02T03:31:10;11.53;;;10.07;;
13343;SDS011;6741;48.964;9.406;2023-05-02T03:33:37;12.67;;;10.97;;
13343;SDS011;6741;48.964;9.406;2023-05-02T03:36:04;12.37;;;11.07;;
13343;SDS011;6741;48.964;9.406;2023-05-02T03:38:32;15.50;;;12.17;;
13343;SDS011;6741;48.964;9.406;2023-05-02T03:41:00;15.10;;;12.57;;
13343;SDS011;6741;48.964;9.406;2023-05-02T03:43:28;16.43;;;13.37;;
13343;SDS011;6741;48.964;9.406;2023-05-02T03:45:55;18.17;;;13.90;;
13343;SDS011;6741;48.964;9.406;2023-05-02T03:48:22;16.37;;;14.20;;
13343;SDS011;6741;48.964;9.406;2023-05-02T03:50:49;18.40;;;13.30;;
13343;SDS011;6741;48.964;9.406;2023-05-02T03:53:16;18.60;;;13.30;;
13343;SDS011;6741;48.964;9.406;2023-05-02T03:55:43;14.73;;;12.03;;
13343;SDS011;6741;48.964;9.406;2023-05-02T03:58:12;15.93;;;13.37;;
13343;SDS011;6741;48.964;9.406;2023-05-02T04:00:39;17.67;;;14.07;;
13343;SDS011;6741;48.964;9.406;2023-05-02T04:03:05;15.43;;;12.83;;
13343;SDS011;6741;48.964;9.406;2023-05-02T04:05:32;23.00;;;14.70;;
13343;SDS011;6741;48.964;9.406;2023-05-02T04:08:00;14.73;;;12.77;;
13343;SDS011;6741;48.964;9.406;2023-05-02T04:10:27;13.73;;;12.27;;
13343;SDS011;6741;48.964;9.406;2023-05-02T04:12:54;13.37;;;11.93;;
13343;SDS011;6741;48.964;9.406;2023-05-02T04:15:22;13.13;;;10.90;;
13343;SDS011;6741;48.964;9.406;2023-05-02T04:17:50;12.57;;;10.33;;
13343;SDS011;6741;48.964;9.406;2023-05-02T04:20:16;13.27;;;10.77;;
13343;SDS011;6741;48.964;9.406;2023-05-02T04:22:44;11.73;;;10.30;;
13343;SDS011;6741;48.964;9.406;2023-05-02T04:25:12;13.23;;;9.50;;
13343;SDS011;6741;48.964;9.406;2023-05-02T04:27:39;11.90;;;10.10;;
13343;SDS011;6741;48.964;9.406;2023-05-02T04:30:06;10.57;;;9.57;;
13343;SDS011;6741;48.964;9.406;2023-05-02T04:32:36;14.50;;;10.40;;
13343;SDS011;6741;48.964;9.406;2023-05-02T04:35:03;13.27;;;10.40;;
13343;SDS011;6741;48.964;9.406;2023-05-02T04:37:32;12.00;;;9.90;;
13343;SDS011;6741;48.964;9.406;2023-05-02T04:40:00;13.33;;;10.47;;
13343;SDS011;6741;48.964;9.406;2023-05-02T04:42:30;12.27;;;10.10;;
13343;SDS011;6741;48.964;9.406;2023-05-02T04:44:57;12.40;;;10.17;;
13343;SDS011;6741;48.964;9.406;2023-05-02T04:47:24;11.20;;;10.00;;
13343;SDS011;6741;48.964;9.406;2023-05-02T04:49:52;12.60;;;10.63;;
13343;SDS011;6741;48.964;9.406;2023-05-02T04:52:19;13.03;;;11.00;;
13343;SDS011;6741;48.964;9.406;2023-05-02T04:54:46;13.20;;;11.43;;
13343;SDS011;6741;48.964;9.406;2023-05-02T04:57:13;13.23;;;11.20;;
13343;SDS011;6741;48.964;9.406;2023-05-02T04:59:40;13.83;;;12.43;;
13343;SDS011;6741;48.964;9.406;2023-05-02T05:02:07;13.27;;;11.40;;
13343;SDS011;6741;48.964;9.406;2023-05-02T05:04:36;13.50;;;11.50;;
13343;SDS011;6741;48.964;9.406;2023-05-02T05:07:05;13.03;;;11.67;;
13343;SDS011;6741;48.964;9.406;2023-05-02T05:09:32;17.07;;;13.37;;
13343;SDS011;6741;48.964;9.406;2023-05-02T05:11:59;16.70;;;14.87;;
13343;SDS011;6741;48.964;9.406;2023-05-02T05:14:27;19.87;;;16.10;;
13343;SDS011;6741;48.964;9.406;2023-05-02T05:16:55;15.20;;;12.57;;
13343;SDS011;6741;48.964;9.406;2023-05-02T05:19:22;21.07;;;17.57;;
13343;SDS011;6741;48.964;9.406;2023-05-02T05:21:52;23.80;;;19.00;;
13343;SDS011;6741;48.964;9.406;2023-05-02T05:24:20;17.70;;;14.63;;
13343;SDS011;6741;48.964;9.406;2023-05-02T05:26:47;17.47;;;13.90;;
13343;SDS011;6741;48.964;9.406;2023-05-02T05:29:14;20.40;;;15.53;;
13343;SDS011;6741;48.964;9.406;2023-05-02T05:31:43;19.67;;;15.60;;
13343;SDS011;6741;48.964;9.406;2023-05-02T05:34:12;19.80;;;16.40;;
13343;SDS011;6741;48.964;9.406;2023-05-02T05:36:43;23.20;;;18.20;;
13343;SDS011;6741;48.964;9.406;2023-05-02T05:39:10;24.13;;;16.57;;
13343;SDS011;6741;48.964;9.406;2023-05-02T05:41:38;22.40;;;17.97;;
13343;SDS011;6741;48.964;9.406;2023-05-02T05:44:05;28.53;;;23.47;;
13343;SDS011;6741;48.964;9.406;2023-05-02T05:46:32;25.10;;;19.43;;
13343;SDS011;6741;48.964;9.406;2023-05-02T05:48:59;24.40;;;18.30;;
13343;SDS011;6741;48.964;9.406;2023-05-02T05:51:26;20.57;;;17.10;;
13343;SDS011;6741;48.964;9.406;2023-05-02T05:53:53;21.60;;;16.50;;
13343;SDS011;6741;48.964;9.406;2023-05-02T05:56:20;20.23;;;15.20;;
13343;SDS011;6741;48.964;9.406;2023-05-02T05:58:49;18.53;;;14.53;;
13343;SDS011;6741;48.964;9.406;2023-05-02T06:01:16;16.23;;;14.47;;
13343;SDS011;6741;48.964;9.406;2023-05-02T06:03:43;15.03;;;13.43;;
13343;SDS011;6741;48.964;9.406;2023-05-02T06:06:09;15.40;;;13.80;;
13343;SDS011;6741;48.964;9.406;2023-05-02T06:08:36;14.63;;;13.13;;
13343;SDS011;6741;48.964;9.406;2023-05-02T06:11:07;16.17;;;13.97;;
13343;SDS011;6741;48.964;9.406;2023-05-02T06:13:34;14.73;;;13.13;;
13343;SDS011;6741;48.964;9.406;2023-05-02T06:16:03;17.80;;;14.03;;
13343;SDS011;6741;48.964;9.406;2023-05-02T06:18:30;17.50;;;14.13;;
13343;SDS011;6741;48.964;9.406;2023-05-02T06:21:01;15.90;;;14.27;;
13343;SDS011;6741;48.964;9.406;2023-05-02T06:23:29;15.90;;;13.23;;
13343;SDS011;6741;48.964;9.406;2023-05-02T06:25:57;14.90;;;13.37;;
13343;SDS011;6741;48.964;9.406;2023-05-02T06:28:25;13.83;;;12.50;;
13343;SDS011;6741;48.964;9.406;2023-05-02T06:30:55;14.70;;;13.20;;
13343;SDS011;6741;48.964;9.406;2023-05-02T06:33:24;13.53;;;12.07;;
13343;SDS011;6741;48.964;9.406;2023-05-02T06:35:51;14.83;;;12.80;;
13343;SDS011;6741;48.964;9.406;2023-05-02T06:38:19;15.37;;;12.20;;
13343;SDS011;6741;48.964;9.406;2023-05-02T06:40:46;14.40;;;12.03;;
13343;SDS011;6741;48.964;9.406;2023-05-02T06:43:13;14.00;;;12.60;;
13343;SDS011;6741;48.964;9.406;2023-05-02T06:45:40;12.73;;;11.50;;
13343;SDS011;6741;48.964;9.406;2023-05-02T06:48:07;15.33;;;12.73;;
13343;SDS011;6741;48.964;9.406;2023-05-02T06:50:36;14.77;;;13.27;;
13343;SDS011;6741;48.964;9.406;2023-05-02T06:53:03;17.30;;;12.97;;
13343;SDS011;6741;48.964;9.406;2023-05-02T06:55:30;18.03;;;13.60;;
13343;SDS011;6741;48.964;9.406;2023-05-02T06:57:57;14.20;;;12.73;;
13343;SDS011;6741;48.964;9.406;2023-05-02T07:00:24;14.37;;;12.87;;
13343;SDS011;6741;48.964;9.406;2023-05-02T07:02:51;15.70;;;12.20;;
13343;SDS011;6741;48.964;9.406;2023-05-02T07:05:18;15.20;;;12.57;;
13343;SDS011;6741;48.964;9.406;2023-05-02T07:07:46;15.83;;;12.53;;
13343;SDS011;6741;48.964;9.406;2023-05-02T07:10:13;13.47;;;12.13;;
13343;SDS011;6741;48.964;9.406;2023-05-02T07:12:40;13.17;;;11.83;;
13343;SDS011;6741;48.964;9.406;2023-05-02T07:15:07;19.00;;;12.23;;
13343;SDS011;6741;48.964;9.406;2023-05-02T07:17:34;13.60;;;11.93;;
13343;SDS011;6741;48.964;9.406;2023-05-02T07:20:01;12.53;;;11.13;;
13343;SDS011;6741;48.964;9.406;2023-05-02T07:22:28;12.37;;;11.07;;
13343;SDS011;6741;48.964;9.406;2023-05-02T07:24:57;14.73;;;11.90;;
13343;SDS011;6741;48.964;9.406;2023-05-02T07:27:25;13.97;;;11.47;;
13343;SDS011;6741;48.964;9.406;2023-05-02T07:29:52;12.63;;;11.43;;
13343;SDS011;6741;48.964;9.406;2023-05-02T07:32:19;14.07;;;11.30;;
13343;SDS011;6741;48.964;9.406;2023-05-02T07:34:46;12.80;;;11.50;;
13343;SDS011;6741;48.964;9.406;2023-05-02T07:37:13;13.40;;;11.67;;
13343;SDS011;6741;48.964;9.406;2023-05-02T07:39:40;12.90;;;11.40;;
13343;SDS011;6741;48.964;9.406;2023-05-02T07:42:08;17.80;;;11.83;;
13343;SDS011;6741;48.964;9.406;2023-05-02T07:44:35;12.90;;;11.50;;
13343;SDS011;6741;48.964;9.406;2023-05-02T07:47:02;15.70;;;11.70;;
13343;SDS011;6741;48.964;9.406;2023-05-02T07:49:29;14.00;;;11.57;;
13343;SDS011;6741;48.964;9.406;2023-05-02T07:51:56;13.17;;;11.70;;
13343;SDS011;6741;48.964;9.406;2023-05-02T07:54:23;15.03;;;12.10;;
13343;SDS011;6741;48.964;9.406;2023-05-02T07:56:50;13.57;;;12.27;;
13343;SDS011;6741;48.964;9.406;2023-05-02T07:59:19;13.30;;;11.90;;
13343;SDS011;6741;48.964;9.406;2023-05-02T08:01:46;14.03;;;12.30;;
13343;SDS011;6741;48.964;9.406;2023-05-02T08:04:12;14.37;;;12.70;;
13343;SDS011;6741;48.964;9.406;2023-05-02T08:06:39;14.07;;;12.33;;
13343;SDS011;6741;48.964;9.406;2023-05-02T08:09:06;14.97;;;13.40;;
13343;SDS011;6741;48.964;9.406;2023-05-02T08:11:34;14.70;;;13.30;;
13343;SDS011;6741;48.964;9.406;2023-05-02T08:14:01;14.20;;;12.73;;
13343;SDS011;6741;48.964;9.406;2023-05-02T08:16:30;15.10;;;13.20;;
13343;SDS011;6741;48.964;9.406;2023-05-02T08:18:57;15.60;;;14.00;;
13343;SDS011;6741;48.964;9.406;2023-05-02T08:21:24;15.30;;;13.73;;
13343;SDS011;6741;48.964;9.406;2023-05-02T08:23:52;15.33;;;13.77;;
13343;SDS011;6741;48.964;9.406;2023-05-02T08:26:23;15.10;;;13.53;;
13343;SDS011;6741;48.964;9.406;2023-05-02T08:28:51;16.27;;;14.60;;
13343;SDS011;6741;48.964;9.406;2023-05-02T08:31:18;16.13;;;14.57;;
13343;SDS011;6741;48.964;9.406;2023-05-02T08:33:46;15.57;;;14.03;;
13343;SDS011;6741;48.964;9.406;2023-05-02T08:36:14;15.63;;;14.13;;
13343;SDS011;6741;48.964;9.406;2023-05-02T08:38:42;17.67;;;15.20;;
13343;SDS011;6741;48.964;9.406;2023-05-02T08:41:10;15.70;;;14.10;;
13343;SDS011;6741;48.964;9.406;2023-05-02T08:43:41;15.53;;;14.03;;
13343;SDS011;6741;48.964;9.406;2023-05-02T08:46:08;17.67;;;15.87;;
13343;SDS011;6741;48.964;9.406;2023-05-02T08:48:37;16.50;;;14.83;;
13343;SDS011;6741;48.964;9.406;2023-05-02T08:51:07;16.57;;;15.00;;
13343;SDS011;6741;48.964;9.406;2023-05-02T08:53:36;16.40;;;14.73;;
13343;SDS011;6741;48.964;9.406;2023-05-02T08:56:04;17.23;;;15.53;;
13343;SDS011;6741;48.964;9.406;2023-05-02T08:58:32;17.40;;;15.70;;
13343;SDS011;6741;48.964;9.406;2023-05-02T09:01:00;17.47;;;15.23;;
13343;SDS011;6741;48.964;9.406;2023-05-02T09:03:33;18.00;;;15.67;;
13343;SDS011;6741;48.964;9.406;2023-05-02T09:06:03;17.20;;;15.50;;
13343;SDS011;6741;48.964;9.406;2023-05-02T09:08:33;17.17;;;15.37;;
13343;SDS011;6741;48.964;9.406;2023-05-02T09:11:01;16.55;;;14.88;;
13343;SDS011;6741;48.964;9.406;2023-05-02T09:13:32;17.25;;;15.55;;
13343;SDS011;6741;48.964;9.406;2023-05-02T09:16:01;17.90;;;16.15;;
13343;SDS011;6741;48.964;9.406;2023-05-02T09:18:30;17.70;;;15.90;;
13343;SDS011;6741;48.964;9.406;2023-05-02T09:20:59;18.30;;;16.40;;
13343;SDS011;6741;48.964;9.406;2023-05-02T09:23:37;17.20;;;15.60;;
13343;SDS011;6741;48.964;9.406;2023-05-02T09:26:09;19.42;;;15.27;;
13343;SDS011;6741;48.964;9.406;2023-05-02T09:28:38;18.25;;;16.40;;
13343;SDS011;6741;48.964;9.406;2023-05-02T09:31:07;19.60;;;17.50;;
13343;SDS011;6741;48.964;9.406;2023-05-02T09:33:34;16.83;;;15.07;;
13343;SDS011;6741;48.964;9.406;2023-05-02T09:36:02;17.17;;;15.23;;
13343;SDS011;6741;48.964;9.406;2023-05-02T09:38:31;18.75;;;16.98;;
13343;SDS011;6741;48.964;9.406;2023-05-02T09:40:59;18.13;;;16.23;;
13343;SDS011;6741;48.964;9.406;2023-05-02T09:43:27;18.83;;;16.83;;
13343;SDS011;6741;48.964;9.406;2023-05-02T09:45:57;19.05;;;17.15;;
13343;SDS011;6741;48.964;9.406;2023-05-02T09:48:25;21.15;;;18.05;;
13343;SDS011;6741;48.964;9.406;2023-05-02T09:50:54;19.25;;;17.20;;
13343;SDS011;6741;48.964;9.406;2023-05-02T09:53:21;18.48;;;16.58;;
13343;SDS011;6741;48.964;9.406;2023-05-02T09:55:58;17.60;;;15.93;;
13343;SDS011;6741;48.964;9.406;2023-05-02T09:58:27;16.58;;;14.90;;
13343;SDS011;6741;48.964;9.406;2023-05-02T10:00:54;17.38;;;15.77;;
13343;SDS011;6741;48.964;9.406;2023-05-02T10:03:23;18.45;;;16.38;;
13343;SDS011;6741;48.964;9.406;2023-05-02T10:05:51;18.20;;;16.30;;
13343;SDS011;6741;48.964;9.406;2023-05-02T10:08:19;16.23;;;14.63;;
13343;SDS011;6741;48.964;9.406;2023-05-02T10:10:49;15.40;;;13.93;;
13343;SDS011;6741;48.964;9.406;2023-05-02T10:13:20;15.38;;;13.88;;
13343;SDS011;6741;48.964;9.406;2023-05-02T10:15:49;15.68;;;14.15;;
13343;SDS011;6741;48.964;9.406;2023-05-02T10:18:26;15.55;;;13.95;;
13343;SDS011;6741;48.964;9.406;2023-05-02T10:20:57;16.15;;;14.55;;
13343;SDS011;6741;48.964;9.406;2023-05-02T10:23:27;17.02;;;14.23;;
13343;SDS011;6741;48.964;9.406;2023-05-02T10:25:56;13.60;;;12.30;;
13343;SDS011;6741;48.964;9.406;2023-05-02T10:28:25;14.48;;;12.98;;
13343;SDS011;6741;48.964;9.406;2023-05-02T10:30:52;15.25;;;13.80;;
13343;SDS011;6741;48.964;9.406;2023-05-02T10:33:20;14.13;;;12.82;;
13343;SDS011;6741;48.964;9.406;2023-05-02T10:35:47;13.48;;;12.18;;
13343;SDS011;6741;48.964;9.406;2023-05-02T10:38:24;13.48;;;12.07;;
13343;SDS011;6741;48.964;9.406;2023-05-02T10:40:53;13.18;;;11.88;;
13343;SDS011;6741;48.964;9.406;2023-05-02T10:43:29;15.23;;;13.75;;
13343;SDS011;6741;48.964;9.406;2023-05-02T10:45:58;16.27;;;14.63;;
13343;SDS011;6741;48.964;9.406;2023-05-02T10:48:27;16.67;;;15.05;;
13343;SDS011;6741;48.964;9.406;2023-05-02T10:50:55;16.58;;;14.38;;
13343;SDS011;6741;48.964;9.406;2023-05-02T10:53:28;16.20;;;14.35;;
13343;SDS011;6741;48.964;9.406;2023-05-02T10:56:12;15.32;;;13.80;;
13343;SDS011;6741;48.964;9.406;2023-05-02T10:58:45;14.98;;;13.50;;
13343;SDS011;6741;48.964;9.406;2023-05-02T11:01:32;16.90;;;12.27;;
13343;SDS011;6741;48.964;9.406;2023-05-02T11:04:07;14.07;;;12.68;;
13343;SDS011;6741;48.964;9.406;2023-05-02T11:06:36;14.98;;;13.48;;
13343;SDS011;6741;48.964;9.406;2023-05-02T11:09:35;16.27;;;14.60;;
13343;SDS011;6741;48.964;9.406;2023-05-02T11:12:05;16.92;;;15.27;;
13343;SDS011;6741;48.964;9.406;2023-05-02T11:14:44;18.08;;;15.23;;
13343;SDS011;6741;48.964;9.406;2023-05-02T11:17:12;17.27;;;15.73;;
13343;SDS011;6741;48.964;9.406;2023-05-02T11:22:50;16.48;;;14.73;;
13343;SDS011;6741;48.964;9.406;2023-05-02T11:25:37;16.02;;;14.43;;
13343;SDS011;6741;48.964;9.406;2023-05-02T11:28:06;15.50;;;13.90;;
13343;SDS011;6741;48.964;9.406;2023-05-02T11:30:54;15.60;;;13.77;;
13343;SDS011;6741;48.964;9.406;2023-05-02T11:33:21;16.73;;;14.73;;
13343;SDS011;6741;48.964;9.406;2023-05-02T11:35:48;17.20;;;15.50;;
13343;SDS011;6741;48.964;9.406;2023-05-02T11:38:16;20.92;;;18.73;;
13343;SDS011;6741;48.964;9.406;2023-05-02T11:40:49;19.20;;;17.30;;
13343;SDS011;6741;48.964;9.406;2023-05-02T11:43:18;20.27;;;18.17;;
13343;SDS011;6741;48.964;9.406;2023-05-02T11:45:46;18.90;;;16.60;;
13343;SDS011;6741;48.964;9.406;2023-05-02T11:48:15;16.98;;;15.23;;
13343;SDS011;6741;48.964;9.406;2023-05-02T11:50:44;17.83;;;16.02;;
13343;SDS011;6741;48.964;9.406;2023-05-02T11:53:12;17.27;;;15.43;;
13343;SDS011;6741;48.964;9.406;2023-05-02T11:55:43;15.35;;;13.90;;
13343;SDS011;6741;48.964;9.406;2023-05-02T11:58:13;19.25;;;17.25;;
13343;SDS011;6741;48.964;9.406;2023-05-02T12:00:41;20.95;;;18.85;;
13343;SDS011;6741;48.964;9.406;2023-05-02T12:03:18;21.60;;;19.35;;
13343;SDS011;6741;48.964;9.406;2023-05-02T12:05:46;24.83;;;22.33;;
13343;SDS011;6741;48.964;9.406;2023-05-02T12:08:17;23.90;;;21.40;;
13343;SDS011;6741;48.964;9.406;2023-05-02T12:10:48;23.50;;;20.80;;
13343;SDS011;6741;48.964;9.406;2023-05-02T12:13:17;26.58;;;23.88;;
13343;SDS011;6741;48.964;9.406;2023-05-02T12:15:46;43.08;;;36.17;;
13343;SDS011;6741;48.964;9.406;2023-05-02T12:18:14;26.25;;;23.38;;
13343;SDS011;6741;48.964;9.406;2023-05-02T12:20:42;25.40;;;21.98;;
13343;SDS011;6741;48.964;9.406;2023-05-02T12:23:09;27.75;;;24.02;;
13343;SDS011;6741;48.964;9.406;2023-05-02T12:25:40;25.20;;;22.45;;
13343;SDS011;6741;48.964;9.406;2023-05-02T12:28:08;22.83;;;20.52;;
13343;SDS011;6741;48.964;9.406;2023-05-02T12:30:37;21.95;;;19.08;;
13343;SDS011;6741;48.964;9.406;2023-05-02T12:33:06;20.55;;;18.40;;
13343;SDS011;6741;48.964;9.406;2023-05-02T12:35:33;23.08;;;19.50;;
13343;SDS011;6741;48.964;9.406;2023-05-02T12:38:07;22.33;;;19.92;;
13343;SDS011;6741;48.964;9.406;2023-05-02T12:40:45;20.50;;;17.95;;
13343;SDS011;6741;48.964;9.406;2023-05-02T12:43:13;21.70;;;17.50;;
13343;SDS011;6741;48.964;9.406;2023-05-02T12:45:42;19.17;;;16.90;;
13343;SDS011;6741;48.964;9.406;2023-05-02T12:48:19;19.33;;;17.35;;
13343;SDS011;6741;48.964;9.406;2023-05-02T12:50:47;22.65;;;16.38;;
13343;SDS011;6741;48.964;9.406;2023-05-02T12:53:14;18.10;;;16.15;;
13343;SDS011;6741;48.964;9.406;2023-05-02T12:55:41;17.10;;;15.40;;
13343;SDS011;6741;48.964;9.406;2023-05-02T12:58:09;17.33;;;15.60;;
13343;SDS011;6741;48.964;9.406;2023-05-02T13:00:38;15.50;;;14.07;;
13343;SDS011;6741;48.964;9.406;2023-05-02T13:03:08;16.83;;;15.15;;
13343;SDS011;6741;48.964;9.406;2023-05-02T13:05:35;14.85;;;13.35;;
13343;SDS011;6741;48.964;9.406;2023-05-02T13:08:03;14.38;;;12.95;;
13343;SDS011;6741;48.964;9.406;2023-05-02T13:10:30;15.40;;;13.90;;
13343;SDS011;6741;48.964;9.406;2023-05-02T13:12:57;13.52;;;12.23;;
13343;SDS011;6741;48.964;9.406;2023-05-02T13:15:25;13.10;;;11.85;;
13343;SDS011;6741;48.964;9.406;2023-05-02T13:17:52;12.75;;;11.55;;
13343;SDS011;6741;48.964;9.406;2023-05-02T13:20:21;13.70;;;12.40;;
13343;SDS011;6741;48.964;9.406;2023-05-02T13:22:48;13.88;;;12.48;;
13343;SDS011;6741;48.964;9.406;2023-05-02T13:25:15;12.02;;;10.98;;
13343;SDS011;6741;48.964;9.406;2023-05-02T13:27:42;12.02;;;10.93;;
13343;SDS011;6741;48.964;9.406;2023-05-02T13:30:15;11.38;;;10.20;;
13343;SDS011;6741;48.964;9.406;2023-05-02T13:32:42;11.55;;;10.45;;
13343;SDS011;6741;48.964;9.406;2023-05-02T13:35:09;11.85;;;10.65;;
13343;SDS011;6741;48.964;9.406;2023-05-02T13:37:39;10.90;;;9.88;;
13343;SDS011;6741;48.964;9.406;2023-05-02T13:40:07;11.52;;;10.48;;
13343;SDS011;6741;48.964;9.406;2023-05-02T13:42:35;10.07;;;9.10;;
13343;SDS011;6741;48.964;9.406;2023-05-02T13:45:02;9.10;;;8.20;;
13343;SDS011;6741;48.964;9.406;2023-05-02T13:47:30;9.93;;;8.93;;
13343;SDS011;6741;48.964;9.406;2023-05-02T13:49:57;9.85;;;8.85;;
13343;SDS011;6741;48.964;9.406;2023-05-02T13:52:24;10.00;;;8.65;;
13343;SDS011;6741;48.964;9.406;2023-05-02T13:54:52;9.52;;;8.43;;
13343;SDS011;6741;48.964;9.406;2023-05-02T13:57:20;8.75;;;7.90;;
13343;SDS011;6741;48.964;9.406;2023-05-02T13:59:47;7.80;;;7.10;;
13343;SDS011;6741;48.964;9.406;2023-05-02T14:02:14;6.65;;;6.15;;
13343;SDS011;6741;48.964;9.406;2023-05-02T14:04:41;6.55;;;5.95;;
13343;SDS011;6741;48.964;9.406;2023-05-02T14:07:08;6.90;;;6.30;;
13343;SDS011;6741;48.964;9.406;2023-05-02T14:09:35;6.85;;;6.35;;
13343;SDS011;6741;48.964;9.406;2023-05-02T14:12:03;7.40;;;6.70;;
13343;SDS011;6741;48.964;9.406;2023-05-02T14:14:32;6.78;;;6.28;;
13343;SDS011;6741;48.964;9.406;2023-05-02T14:17:00;7.05;;;6.45;;
13343;SDS011;6741;48.964;9.406;2023-05-02T14:19:27;7.35;;;6.65;;
13343;SDS011;6741;48.964;9.406;2023-05-02T14:21:54;5.50;;;4.82;;
13343;SDS011;6741;48.964;9.406;2023-05-02T14:24:21;5.53;;;5.13;;
13343;SDS011;6741;48.964;9.406;2023-05-02T14:26:48;7.57;;;6.53;;
13343;SDS011;6741;48.964;9.406;2023-05-02T14:29:16;6.20;;;5.60;;
13343;SDS011;6741;48.964;9.406;2023-05-02T14:31:43;6.53;;;6.03;;
13343;SDS011;6741;48.964;9.406;2023-05-02T14:34:11;7.43;;;6.72;;
13343;SDS011;6741;48.964;9.406;2023-05-02T14:36:38;7.75;;;7.05;;
13343;SDS011;6741;48.964;9.406;2023-05-02T14:39:05;7.93;;;7.22;;
13343;SDS011;6741;48.964;9.406;2023-05-02T14:41:32;8.70;;;7.95;;
13343;SDS011;6741;48.964;9.406;2023-05-02T14:44:00;9.30;;;8.52;;
13343;SDS011;6741;48.964;9.406;2023-05-02T14:46:29;7.95;;;7.25;;
13343;SDS011;6741;48.964;9.406;2023-05-02T14:48:56;8.02;;;7.22;;
13343;SDS011;6741;48.964;9.406;2023-05-02T14:51:23;8.43;;;7.72;;
13343;SDS011;6741;48.964;9.406;2023-05-02T14:53:50;7.90;;;7.20;;
13343;SDS011;6741;48.964;9.406;2023-05-02T14:56:18;9.15;;;8.23;;